ZSSS/SHA METAR and TAF weather

Enter ICAO airport designator
Station Type Date Time Source
ZSSS METAR 2019/05/25 09:00 UTC NOAA

ZSSS 250900Z 15007MPS CAVOK 26/18 Q1009 NOSIG


Station Type Date Time Source
ZSSS Decoded METAR 2019/05/25 09:00 UTC NOAA

Shanghai / Hongqiao, China (ZSSS) 31-10N 121-26E 3M
May 25, 2019 - 05:00 AM EDT / 2019.05.25 0900 UTC
Wind: from the SSE (150 degrees) at 16 MPH (14 KT):0
Visibility: greater than 7 mile(s):0
Temperature: 78 F (26 C)
Dew Point: 64 F (18 C)
Relative Humidity: 61%
Pressure (altimeter): 29.80 in. Hg (1009 hPa)
ob: ZSSS 250900Z 15007MPS CAVOK 26/18 Q1009 NOSIG
cycle: 9

Station Type Date Time Source
ZSSS TAF 2019/05/25 06:46 UTC NOAA

TAF
AMD ZSSS 250642Z 2506/2606 16008G13MPS 6000 BKN040 TX30/2506Z TN22/2521Z
TEMPO 2508/2514 SHRA BKN007 FEW030CB
TEMPO 2520/2602 SHRA BKN007 FEW030CB
TEMPO 2602/2606 TSRA BKN007 SCT030CB

Example: see airport list